sensor_id;sensor_type;location;lat;lon;timestamp;temperature;humidity
21267;DHT22;10791;53.108;18.326;2023-12-20T00:02:33;6.60;99.90
21267;DHT22;10791;53.108;18.326;2023-12-20T00:07:36;6.60;99.90
21267;DHT22;10791;53.108;18.326;2023-12-20T00:12:40;6.60;99.90
21267;DHT22;10791;53.108;18.326;2023-12-20T00:17:43;6.60;99.90
21267;DHT22;10791;53.108;18.326;2023-12-20T00:22:47;6.60;99.90
21267;DHT22;10791;53.108;18.326;2023-12-20T00:27:50;6.70;99.90
21267;DHT22;10791;53.108;18.326;2023-12-20T00:32:53;6.70;99.90
21267;DHT22;10791;53.108;18.326;2023-12-20T00:37:57;6.60;99.90
21267;DHT22;10791;53.108;18.326;2023-12-20T00:43:01;6.70;99.90
21267;DHT22;10791;53.108;18.326;2023-12-20T00:48:05;6.70;99.90
21267;DHT22;10791;53.108;18.326;2023-12-20T00:53:08;6.60;99.90
21267;DHT22;10791;53.108;18.326;2023-12-20T00:58:11;6.70;99.90
21267;DHT22;10791;53.108;18.326;2023-12-20T01:03:14;6.70;99.90
21267;DHT22;10791;53.108;18.326;2023-12-20T01:08:18;6.70;99.90
21267;DHT22;10791;53.108;18.326;2023-12-20T01:13:21;6.70;99.90
21267;DHT22;10791;53.108;18.326;2023-12-20T01:18:25;6.70;99.90
21267;DHT22;10791;53.108;18.326;2023-12-20T01:23:28;6.70;99.90
21267;DHT22;10791;53.108;18.326;2023-12-20T01:28:31;6.70;99.90
21267;DHT22;10791;53.108;18.326;2023-12-20T01:33:34;6.70;99.90
21267;DHT22;10791;53.108;18.326;2023-12-20T01:38:38;6.70;99.90
21267;DHT22;10791;53.108;18.326;2023-12-20T01:43:41;6.80;99.90
21267;DHT22;10791;53.108;18.326;2023-12-20T01:48:53;6.80;99.90
21267;DHT22;10791;53.108;18.326;2023-12-20T01:53:57;6.80;99.90
21267;DHT22;10791;53.108;18.326;2023-12-20T01:59:02;6.80;99.90
21267;DHT22;10791;53.108;18.326;2023-12-20T02:04:07;6.80;99.90
21267;DHT22;10791;53.108;18.326;2023-12-20T02:09:11;6.80;99.90
21267;DHT22;10791;53.108;18.326;2023-12-20T02:14:14;6.80;99.90
21267;DHT22;10791;53.108;18.326;2023-12-20T02:19:17;6.80;99.90
21267;DHT22;10791;53.108;18.326;2023-12-20T02:24:23;6.80;99.90
21267;DHT22;10791;53.108;18.326;2023-12-20T02:29:26;6.80;99.90
21267;DHT22;10791;53.108;18.326;2023-12-20T02:34:30;6.80;99.90
21267;DHT22;10791;53.108;18.326;2023-12-20T02:39:33;6.80;99.90
21267;DHT22;10791;53.108;18.326;2023-12-20T02:44:36;6.80;99.90
21267;DHT22;10791;53.108;18.326;2023-12-20T02:49:39;6.80;99.90
21267;DHT22;10791;53.108;18.326;2023-12-20T02:54:43;6.80;99.90
21267;DHT22;10791;53.108;18.326;2023-12-20T02:59:46;6.80;99.90
21267;DHT22;10791;53.108;18.326;2023-12-20T03:04:49;6.80;99.90
21267;DHT22;10791;53.108;18.326;2023-12-20T03:09:52;6.80;99.90
21267;DHT22;10791;53.108;18.326;2023-12-20T03:15:15;6.80;99.90
21267;DHT22;10791;53.108;18.326;2023-12-20T03:20:19;6.80;99.90
21267;DHT22;10791;53.108;18.326;2023-12-20T03:25:22;6.70;99.90
21267;DHT22;10791;53.108;18.326;2023-12-20T03:30:25;6.70;99.90
21267;DHT22;10791;53.108;18.326;2023-12-20T03:35:28;6.80;99.90
21267;DHT22;10791;53.108;18.326;2023-12-20T03:40:32;6.80;99.90
21267;DHT22;10791;53.108;18.326;2023-12-20T03:45:35;6.70;99.90
21267;DHT22;10791;53.108;18.326;2023-12-20T03:50:38;6.80;99.90
21267;DHT22;10791;53.108;18.326;2023-12-20T03:55:42;6.80;99.90
21267;DHT22;10791;53.108;18.326;2023-12-20T04:00:45;6.70;99.90
21267;DHT22;10791;53.108;18.326;2023-12-20T04:05:49;6.80;99.90
21267;DHT22;10791;53.108;18.326;2023-12-20T04:10:53;6.80;99.90
21267;DHT22;10791;53.108;18.326;2023-12-20T04:15:56;6.80;99.90
21267;DHT22;10791;53.108;18.326;2023-12-20T04:20:59;6.70;99.90
21267;DHT22;10791;53.108;18.326;2023-12-20T04:26:02;6.80;99.90
21267;DHT22;10791;53.108;18.326;2023-12-20T04:31:05;6.80;99.90
21267;DHT22;10791;53.108;18.326;2023-12-20T04:36:09;6.80;99.90
21267;DHT22;10791;53.108;18.326;2023-12-20T04:41:13;6.80;99.90
21267;DHT22;10791;53.108;18.326;2023-12-20T04:46:18;6.70;99.90
21267;DHT22;10791;53.108;18.326;2023-12-20T04:51:22;6.80;99.90
21267;DHT22;10791;53.108;18.326;2023-12-20T04:56:25;6.80;99.90
21267;DHT22;10791;53.108;18.326;2023-12-20T05:01:29;6.70;99.90
21267;DHT22;10791;53.108;18.326;2023-12-20T05:06:32;6.70;99.90
21267;DHT22;10791;53.108;18.326;2023-12-20T05:11:35;6.70;99.90
21267;DHT22;10791;53.108;18.326;2023-12-20T05:16:38;6.70;99.90
21267;DHT22;10791;53.108;18.326;2023-12-20T05:21:42;6.60;99.90
21267;DHT22;10791;53.108;18.326;2023-12-20T05:26:45;6.60;99.90
21267;DHT22;10791;53.108;18.326;2023-12-20T05:31:51;6.60;99.90
21267;DHT22;10791;53.108;18.326;2023-12-20T05:36:54;6.60;99.90
21267;DHT22;10791;53.108;18.326;2023-12-20T05:41:57;6.60;99.90
21267;DHT22;10791;53.108;18.326;2023-12-20T05:47:00;6.60;99.90
21267;DHT22;10791;53.108;18.326;2023-12-20T05:52:04;6.50;99.90
21267;DHT22;10791;53.108;18.326;2023-12-20T05:57:07;6.50;99.90
21267;DHT22;10791;53.108;18.326;2023-12-20T06:02:10;6.50;99.90
21267;DHT22;10791;53.108;18.326;2023-12-20T06:07:14;6.50;99.90
21267;DHT22;10791;53.108;18.326;2023-12-20T06:12:18;6.50;99.90
21267;DHT22;10791;53.108;18.326;2023-12-20T06:17:21;6.50;99.90
21267;DHT22;10791;53.108;18.326;2023-12-20T06:22:25;6.50;99.90
21267;DHT22;10791;53.108;18.326;2023-12-20T06:27:28;6.40;99.90
21267;DHT22;10791;53.108;18.326;2023-12-20T06:32:32;6.40;99.90
21267;DHT22;10791;53.108;18.326;2023-12-20T06:37:35;6.30;99.90
21267;DHT22;10791;53.108;18.326;2023-12-20T06:42:39;6.30;99.90
21267;DHT22;10791;53.108;18.326;2023-12-20T06:47:56;6.20;99.90
21267;DHT22;10791;53.108;18.326;2023-12-20T06:52:59;6.20;99.90
21267;DHT22;10791;53.108;18.326;2023-12-20T06:58:03;6.10;99.90
21267;DHT22;10791;53.108;18.326;2023-12-20T07:03:07;6.00;99.90
21267;DHT22;10791;53.108;18.326;2023-12-20T07:08:10;5.90;99.90
21267;DHT22;10791;53.108;18.326;2023-12-20T07:13:14;5.80;99.90
21267;DHT22;10791;53.108;18.326;2023-12-20T07:18:18;5.80;99.90
21267;DHT22;10791;53.108;18.326;2023-12-20T07:23:21;5.70;99.90
21267;DHT22;10791;53.108;18.326;2023-12-20T07:28:25;5.60;99.90
21267;DHT22;10791;53.108;18.326;2023-12-20T07:33:28;5.50;99.90
21267;DHT22;10791;53.108;18.326;2023-12-20T07:38:37;5.50;99.90
21267;DHT22;10791;53.108;18.326;2023-12-20T07:43:41;5.40;99.90
21267;DHT22;10791;53.108;18.326;2023-12-20T07:48:44;5.40;99.90
21267;DHT22;10791;53.108;18.326;2023-12-20T07:53:49;5.40;99.90
21267;DHT22;10791;53.108;18.326;2023-12-20T07:58:52;5.30;99.90
21267;DHT22;10791;53.108;18.326;2023-12-20T08:03:57;5.30;99.90
21267;DHT22;10791;53.108;18.326;2023-12-20T08:09:02;5.30;99.90
21267;DHT22;10791;53.108;18.326;2023-12-20T08:14:08;5.30;99.90
21267;DHT22;10791;53.108;18.326;2023-12-20T08:19:11;5.30;99.90
21267;DHT22;10791;53.108;18.326;2023-12-20T08:24:15;5.30;99.90
21267;DHT22;10791;53.108;18.326;2023-12-20T08:29:19;5.30;99.90
21267;DHT22;10791;53.108;18.326;2023-12-20T08:34:24;5.30;99.90
21267;DHT22;10791;53.108;18.326;2023-12-20T08:39:28;5.30;99.90
21267;DHT22;10791;53.108;18.326;2023-12-20T08:44:32;5.30;99.90
21267;DHT22;10791;53.108;18.326;2023-12-20T08:49:36;5.40;99.90
21267;DHT22;10791;53.108;18.326;2023-12-20T08:54:39;5.40;99.90
21267;DHT22;10791;53.108;18.326;2023-12-20T08:59:45;5.40;99.90
21267;DHT22;10791;53.108;18.326;2023-12-20T09:04:49;5.40;99.90
21267;DHT22;10791;53.108;18.326;2023-12-20T09:09:53;5.40;99.90
21267;DHT22;10791;53.108;18.326;2023-12-20T09:14:58;5.30;99.90
21267;DHT22;10791;53.108;18.326;2023-12-20T09:20:02;5.30;99.90
21267;DHT22;10791;53.108;18.326;2023-12-20T09:25:06;5.30;99.90
21267;DHT22;10791;53.108;18.326;2023-12-20T09:30:10;5.40;99.90
21267;DHT22;10791;53.108;18.326;2023-12-20T09:35:13;5.40;99.90
21267;DHT22;10791;53.108;18.326;2023-12-20T09:40:19;5.40;99.90
21267;DHT22;10791;53.108;18.326;2023-12-20T09:45:23;5.50;99.90
21267;DHT22;10791;53.108;18.326;2023-12-20T09:50:30;5.60;99.90
21267;DHT22;10791;53.108;18.326;2023-12-20T09:55:36;5.70;99.90
21267;DHT22;10791;53.108;18.326;2023-12-20T10:00:39;5.90;99.90
21267;DHT22;10791;53.108;18.326;2023-12-20T10:05:44;5.90;99.90
21267;DHT22;10791;53.108;18.326;2023-12-20T10:10:48;5.90;99.90
21267;DHT22;10791;53.108;18.326;2023-12-20T10:15:55;5.90;99.90
21267;DHT22;10791;53.108;18.326;2023-12-20T10:21:00;5.90;99.90
21267;DHT22;10791;53.108;18.326;2023-12-20T10:26:03;5.90;99.90
21267;DHT22;10791;53.108;18.326;2023-12-20T10:31:07;5.90;99.90
21267;DHT22;10791;53.108;18.326;2023-12-20T10:36:10;6.10;99.90
21267;DHT22;10791;53.108;18.326;2023-12-20T10:41:19;6.40;99.90
21267;DHT22;10791;53.108;18.326;2023-12-20T10:46:26;6.60;99.90
21267;DHT22;10791;53.108;18.326;2023-12-20T10:51:31;6.60;99.90
21267;DHT22;10791;53.108;18.326;2023-12-20T10:56:38;6.60;99.90
21267;DHT22;10791;53.108;18.326;2023-12-20T11:01:42;6.50;99.90
21267;DHT22;10791;53.108;18.326;2023-12-20T11:06:56;6.50;99.90
21267;DHT22;10791;53.108;18.326;2023-12-20T11:12:26;6.40;99.90
21267;DHT22;10791;53.108;18.326;2023-12-20T11:17:32;6.40;99.90
21267;DHT22;10791;53.108;18.326;2023-12-20T11:22:35;6.30;99.90
21267;DHT22;10791;53.108;18.326;2023-12-20T11:27:43;6.30;99.90
21267;DHT22;10791;53.108;18.326;2023-12-20T11:32:51;6.30;99.90
21267;DHT22;10791;53.108;18.326;2023-12-20T11:37:58;6.30;99.90
21267;DHT22;10791;53.108;18.326;2023-12-20T11:43:02;6.30;99.90
21267;DHT22;10791;53.108;18.326;2023-12-20T11:48:07;6.30;99.90
21267;DHT22;10791;53.108;18.326;2023-12-20T11:53:10;6.30;99.90
21267;DHT22;10791;53.108;18.326;2023-12-20T11:58:13;6.20;99.90
21267;DHT22;10791;53.108;18.326;2023-12-20T12:03:18;6.30;99.90
21267;DHT22;10791;53.108;18.326;2023-12-20T12:08:21;6.40;99.90
21267;DHT22;10791;53.108;18.326;2023-12-20T12:13:25;6.30;99.90
21267;DHT22;10791;53.108;18.326;2023-12-20T12:18:31;6.30;99.90
21267;DHT22;10791;53.108;18.326;2023-12-20T12:23:34;6.30;99.90
21267;DHT22;10791;53.108;18.326;2023-12-20T12:28:40;6.30;99.90
21267;DHT22;10791;53.108;18.326;2023-12-20T12:33:44;6.10;99.90
21267;DHT22;10791;53.108;18.326;2023-12-20T12:38:49;6.10;99.90
21267;DHT22;10791;53.108;18.326;2023-12-20T12:43:52;6.10;99.90
21267;DHT22;10791;53.108;18.326;2023-12-20T12:48:56;6.00;99.90
21267;DHT22;10791;53.108;18.326;2023-12-20T12:53:59;6.00;99.90
21267;DHT22;10791;53.108;18.326;2023-12-20T12:59:03;5.90;99.90
21267;DHT22;10791;53.108;18.326;2023-12-20T13:04:06;5.90;99.90
21267;DHT22;10791;53.108;18.326;2023-12-20T13:09:14;5.90;99.90
21267;DHT22;10791;53.108;18.326;2023-12-20T13:14:18;5.90;99.90
21267;DHT22;10791;53.108;18.326;2023-12-20T13:19:21;5.80;99.90
21267;DHT22;10791;53.108;18.326;2023-12-20T13:24:25;5.90;99.90
21267;DHT22;10791;53.108;18.326;2023-12-20T13:29:28;5.80;99.90
21267;DHT22;10791;53.108;18.326;2023-12-20T13:34:32;5.70;99.90
21267;DHT22;10791;53.108;18.326;2023-12-20T13:39:35;5.70;99.90
21267;DHT22;10791;53.108;18.326;2023-12-20T13:44:38;5.70;99.90
21267;DHT22;10791;53.108;18.326;2023-12-20T13:49:41;5.70;99.90
21267;DHT22;10791;53.108;18.326;2023-12-20T13:54:45;5.70;99.90
21267;DHT22;10791;53.108;18.326;2023-12-20T13:59:48;5.70;99.90
21267;DHT22;10791;53.108;18.326;2023-12-20T14:04:52;5.70;99.90
21267;DHT22;10791;53.108;18.326;2023-12-20T14:09:56;5.70;99.90
21267;DHT22;10791;53.108;18.326;2023-12-20T14:14:59;5.70;99.90
21267;DHT22;10791;53.108;18.326;2023-12-20T14:20:05;5.70;99.90
21267;DHT22;10791;53.108;18.326;2023-12-20T14:25:14;5.70;99.90
21267;DHT22;10791;53.108;18.326;2023-12-20T14:30:18;5.70;99.90
21267;DHT22;10791;53.108;18.326;2023-12-20T14:35:22;5.70;99.90
21267;DHT22;10791;53.108;18.326;2023-12-20T14:40:27;5.70;99.90
21267;DHT22;10791;53.108;18.326;2023-12-20T14:45:31;5.80;99.90
21267;DHT22;10791;53.108;18.326;2023-12-20T14:50:34;5.80;99.90
21267;DHT22;10791;53.108;18.326;2023-12-20T14:55:39;5.80;99.90
21267;DHT22;10791;53.108;18.326;2023-12-20T15:00:43;5.80;99.90
21267;DHT22;10791;53.108;18.326;2023-12-20T15:05:48;5.80;99.90
21267;DHT22;10791;53.108;18.326;2023-12-20T15:10:52;5.70;99.90
21267;DHT22;10791;53.108;18.326;2023-12-20T15:15:56;5.80;99.90
21267;DHT22;10791;53.108;18.326;2023-12-20T15:20:59;5.80;99.90
21267;DHT22;10791;53.108;18.326;2023-12-20T15:26:03;5.80;99.90
21267;DHT22;10791;53.108;18.326;2023-12-20T15:31:07;5.80;99.90
21267;DHT22;10791;53.108;18.326;2023-12-20T15:36:10;5.80;99.90
21267;DHT22;10791;53.108;18.326;2023-12-20T15:41:21;5.90;99.90
21267;DHT22;10791;53.108;18.326;2023-12-20T15:46:25;5.80;99.90
21267;DHT22;10791;53.108;18.326;2023-12-20T15:51:29;5.70;99.90
21267;DHT22;10791;53.108;18.326;2023-12-20T16:02:24;5.50;99.90
21267;DHT22;10791;53.108;18.326;2023-12-20T16:07:58;5.40;99.90
21267;DHT22;10791;53.108;18.326;2023-12-20T16:13:29;5.30;99.90
21267;DHT22;10791;53.108;18.326;2023-12-20T16:18:35;5.30;99.90
21267;DHT22;10791;53.108;18.326;2023-12-20T16:23:43;5.30;99.90
21267;DHT22;10791;53.108;18.326;2023-12-20T16:28:51;5.20;99.90
21267;DHT22;10791;53.108;18.326;2023-12-20T16:33:55;5.30;99.90
21267;DHT22;10791;53.108;18.326;2023-12-20T16:38:59;5.20;99.90
21267;DHT22;10791;53.108;18.326;2023-12-20T16:44:05;5.20;99.90
21267;DHT22;10791;53.108;18.326;2023-12-20T16:49:12;5.20;99.90
21267;DHT22;10791;53.108;18.326;2023-12-20T16:54:17;5.30;99.90
21267;DHT22;10791;53.108;18.326;2023-12-20T16:59:21;5.30;99.90
21267;DHT22;10791;53.108;18.326;2023-12-20T17:04:26;5.40;99.90
21267;DHT22;10791;53.108;18.326;2023-12-20T17:09:34;5.40;99.90
21267;DHT22;10791;53.108;18.326;2023-12-20T17:14:41;5.40;99.90
21267;DHT22;10791;53.108;18.326;2023-12-20T17:19:52;5.50;99.90
21267;DHT22;10791;53.108;18.326;2023-12-20T17:24:58;5.60;99.90
21267;DHT22;10791;53.108;18.326;2023-12-20T17:30:05;5.50;99.90
21267;DHT22;10791;53.108;18.326;2023-12-20T17:35:16;5.40;99.90
21267;DHT22;10791;53.108;18.326;2023-12-20T17:40:25;5.30;99.90
21267;DHT22;10791;53.108;18.326;2023-12-20T17:45:33;5.00;99.90
21267;DHT22;10791;53.108;18.326;2023-12-20T17:50:40;4.80;99.90
21267;DHT22;10791;53.108;18.326;2023-12-20T17:55:48;4.70;99.90
21267;DHT22;10791;53.108;18.326;2023-12-20T18:01:04;4.60;99.90
21267;DHT22;10791;53.108;18.326;2023-12-20T18:06:16;4.60;99.90
21267;DHT22;10791;53.108;18.326;2023-12-20T18:11:33;4.50;99.90
21267;DHT22;10791;53.108;18.326;2023-12-20T18:16:52;4.40;99.90
21267;DHT22;10791;53.108;18.326;2023-12-20T18:22:11;4.40;99.90
21267;DHT22;10791;53.108;18.326;2023-12-20T18:27:15;4.30;99.90
21267;DHT22;10791;53.108;18.326;2023-12-20T18:32:19;4.20;99.90
21267;DHT22;10791;53.108;18.326;2023-12-20T18:37:23;4.20;99.90
21267;DHT22;10791;53.108;18.326;2023-12-20T18:42:27;4.10;99.90
21267;DHT22;10791;53.108;18.326;2023-12-20T18:47:32;4.10;99.90
21267;DHT22;10791;53.108;18.326;2023-12-20T18:52:37;4.20;99.90
21267;DHT22;10791;53.108;18.326;2023-12-20T18:57:46;4.30;99.90
21267;DHT22;10791;53.108;18.326;2023-12-20T19:02:52;4.20;99.90
21267;DHT22;10791;53.108;18.326;2023-12-20T19:07:57;4.10;99.90
21267;DHT22;10791;53.108;18.326;2023-12-20T19:13:01;4.20;99.90
21267;DHT22;10791;53.108;18.326;2023-12-20T19:18:06;4.30;99.90
21267;DHT22;10791;53.108;18.326;2023-12-20T19:23:11;4.40;99.90
21267;DHT22;10791;53.108;18.326;2023-12-20T19:28:15;4.50;99.90
21267;DHT22;10791;53.108;18.326;2023-12-20T19:33:21;4.50;99.90
21267;DHT22;10791;53.108;18.326;2023-12-20T19:38:26;4.60;99.90
21267;DHT22;10791;53.108;18.326;2023-12-20T19:43:32;4.70;99.90
21267;DHT22;10791;53.108;18.326;2023-12-20T19:48:36;4.70;99.90
21267;DHT22;10791;53.108;18.326;2023-12-20T19:53:41;4.70;99.90
21267;DHT22;10791;53.108;18.326;2023-12-20T19:58:46;4.70;99.90
21267;DHT22;10791;53.108;18.326;2023-12-20T20:03:50;4.70;99.90
21267;DHT22;10791;53.108;18.326;2023-12-20T20:08:55;4.70;99.90
21267;DHT22;10791;53.108;18.326;2023-12-20T20:14:02;4.70;99.90
21267;DHT22;10791;53.108;18.326;2023-12-20T20:19:07;4.70;99.90
21267;DHT22;10791;53.108;18.326;2023-12-20T20:24:14;4.70;99.90
21267;DHT22;10791;53.108;18.326;2023-12-20T20:29:19;4.60;99.90
21267;DHT22;10791;53.108;18.326;2023-12-20T20:34:28;4.50;99.90
21267;DHT22;10791;53.108;18.326;2023-12-20T20:39:33;4.40;99.90
21267;DHT22;10791;53.108;18.326;2023-12-20T20:44:39;4.30;99.90
21267;DHT22;10791;53.108;18.326;2023-12-20T20:49:49;4.20;99.90
21267;DHT22;10791;53.108;18.326;2023-12-20T20:54:53;4.20;99.90
21267;DHT22;10791;53.108;18.326;2023-12-20T20:59:59;4.20;99.90
21267;DHT22;10791;53.108;18.326;2023-12-20T21:05:03;4.30;99.90
21267;DHT22;10791;53.108;18.326;2023-12-20T21:10:08;4.40;99.90
21267;DHT22;10791;53.108;18.326;2023-12-20T21:15:12;4.40;99.90
21267;DHT22;10791;53.108;18.326;2023-12-20T21:20:17;4.40;99.90
21267;DHT22;10791;53.108;18.326;2023-12-20T21:25:21;4.30;99.90
21267;DHT22;10791;53.108;18.326;2023-12-20T21:30:27;4.30;99.90
21267;DHT22;10791;53.108;18.326;2023-12-20T21:35:31;4.40;99.90
21267;DHT22;10791;53.108;18.326;2023-12-20T21:40:35;4.30;99.90
21267;DHT22;10791;53.108;18.326;2023-12-20T21:45:39;4.30;99.90
21267;DHT22;10791;53.108;18.326;2023-12-20T21:50:43;4.30;99.90
21267;DHT22;10791;53.108;18.326;2023-12-20T21:55:46;4.40;99.90
21267;DHT22;10791;53.108;18.326;2023-12-20T22:00:49;4.40;99.90
21267;DHT22;10791;53.108;18.326;2023-12-20T22:05:53;4.40;99.90
21267;DHT22;10791;53.108;18.326;2023-12-20T22:10:57;4.40;99.90
21267;DHT22;10791;53.108;18.326;2023-12-20T22:16:02;4.30;99.90
21267;DHT22;10791;53.108;18.326;2023-12-20T22:21:06;4.30;99.90
21267;DHT22;10791;53.108;18.326;2023-12-20T22:26:09;4.30;99.90
21267;DHT22;10791;53.108;18.326;2023-12-20T22:31:13;4.30;99.90
21267;DHT22;10791;53.108;18.326;2023-12-20T22:36:17;4.40;99.90
21267;DHT22;10791;53.108;18.326;2023-12-20T22:41:21;4.30;99.90
21267;DHT22;10791;53.108;18.326;2023-12-20T22:46:25;4.20;99.90
21267;DHT22;10791;53.108;18.326;2023-12-20T22:51:33;4.10;99.90
21267;DHT22;10791;53.108;18.326;2023-12-20T22:56:37;4.10;99.90
21267;DHT22;10791;53.108;18.326;2023-12-20T23:01:44;4.20;99.90
21267;DHT22;10791;53.108;18.326;2023-12-20T23:06:49;4.20;99.90
21267;DHT22;10791;53.108;18.326;2023-12-20T23:11:53;4.20;99.90
21267;DHT22;10791;53.108;18.326;2023-12-20T23:17:03;4.20;99.90
21267;DHT22;10791;53.108;18.326;2023-12-20T23:22:06;4.20;99.90
21267;DHT22;10791;53.108;18.326;2023-12-20T23:27:10;4.10;99.90
21267;DHT22;10791;53.108;18.326;2023-12-20T23:32:13;4.10;99.90
21267;DHT22;10791;53.108;18.326;2023-12-20T23:37:17;4.10;99.90
21267;DHT22;10791;53.108;18.326;2023-12-20T23:42:20;4.20;99.90
21267;DHT22;10791;53.108;18.326;2023-12-20T23:47:24;4.20;99.90
21267;DHT22;10791;53.108;18.326;2023-12-20T23:52:27;4.30;99.90
21267;DHT22;10791;53.108;18.326;2023-12-20T23:57:31;4.40;99.90
